sensor_id;sensor_type;location;lat;lon;timestamp;P1;durP1;ratioP1;P2;durP2;ratioP2
18661;SDS011;61528;49.456;11.098;2023-04-15T00:02:13;10.50;;;8.50;;
18661;SDS011;61528;49.456;11.098;2023-04-15T00:04:40;9.57;;;7.87;;
18661;SDS011;61528;49.456;11.098;2023-04-15T00:07:06;9.97;;;8.23;;
18661;SDS011;61528;49.456;11.098;2023-04-15T00:09:33;8.57;;;7.70;;
18661;SDS011;61528;49.456;11.098;2023-04-15T00:11:59;9.87;;;8.87;;
18661;SDS011;61528;49.456;11.098;2023-04-15T00:14:26;9.10;;;8.20;;
18661;SDS011;61528;49.456;11.098;2023-04-15T00:16:52;9.67;;;7.57;;
18661;SDS011;61528;49.456;11.098;2023-04-15T00:19:20;9.40;;;8.10;;
18661;SDS011;61528;49.456;11.098;2023-04-15T00:21:46;9.30;;;8.00;;
18661;SDS011;61528;49.456;11.098;2023-04-15T00:24:13;11.77;;;8.93;;
18661;SDS011;61528;49.456;11.098;2023-04-15T00:26:49;10.53;;;9.13;;
18661;SDS011;61528;49.456;11.098;2023-04-15T00:29:15;10.43;;;9.33;;
18661;SDS011;61528;49.456;11.098;2023-04-15T00:31:41;10.67;;;9.03;;
18661;SDS011;61528;49.456;11.098;2023-04-15T00:34:08;9.77;;;8.53;;
18661;SDS011;61528;49.456;11.098;2023-04-15T00:36:38;6.80;;;6.10;;
18661;SDS011;61528;49.456;11.098;2023-04-15T00:39:07;6.83;;;6.20;;
18661;SDS011;61528;49.456;11.098;2023-04-15T00:41:33;7.37;;;6.67;;
18661;SDS011;61528;49.456;11.098;2023-04-15T00:44:06;6.77;;;6.07;;
18661;SDS011;61528;49.456;11.098;2023-04-15T00:46:36;6.60;;;5.80;;
18661;SDS011;61528;49.456;11.098;2023-04-15T00:49:03;6.97;;;5.63;;
18661;SDS011;61528;49.456;11.098;2023-04-15T00:51:29;8.07;;;5.90;;
18661;SDS011;61528;49.456;11.098;2023-04-15T00:53:58;6.60;;;5.90;;
18661;SDS011;61528;49.456;11.098;2023-04-15T00:56:24;7.80;;;6.10;;
18661;SDS011;61528;49.456;11.098;2023-04-15T00:58:52;7.90;;;6.63;;
18661;SDS011;61528;49.456;11.098;2023-04-15T01:01:21;7.53;;;6.20;;
18661;SDS011;61528;49.456;11.098;2023-04-15T01:03:49;7.57;;;6.50;;
18661;SDS011;61528;49.456;11.098;2023-04-15T01:06:16;7.20;;;6.03;;
18661;SDS011;61528;49.456;11.098;2023-04-15T01:08:43;7.57;;;6.07;;
18661;SDS011;61528;49.456;11.098;2023-04-15T01:11:09;6.90;;;5.70;;
18661;SDS011;61528;49.456;11.098;2023-04-15T01:13:37;6.57;;;5.60;;
18661;SDS011;61528;49.456;11.098;2023-04-15T01:16:03;6.17;;;5.43;;
18661;SDS011;61528;49.456;11.098;2023-04-15T01:18:30;6.27;;;5.10;;
18661;SDS011;61528;49.456;11.098;2023-04-15T01:20:56;7.47;;;5.20;;
18661;SDS011;61528;49.456;11.098;2023-04-15T01:23:23;6.60;;;5.57;;
18661;SDS011;61528;49.456;11.098;2023-04-15T01:25:49;5.97;;;5.27;;
18661;SDS011;61528;49.456;11.098;2023-04-15T01:28:16;7.27;;;5.37;;
18661;SDS011;61528;49.456;11.098;2023-04-15T01:30:42;6.07;;;5.47;;
18661;SDS011;61528;49.456;11.098;2023-04-15T01:33:09;6.13;;;5.53;;
18661;SDS011;61528;49.456;11.098;2023-04-15T01:35:35;6.07;;;5.47;;
18661;SDS011;61528;49.456;11.098;2023-04-15T01:38:06;7.00;;;5.77;;
18661;SDS011;61528;49.456;11.098;2023-04-15T01:40:33;6.90;;;5.67;;
18661;SDS011;61528;49.456;11.098;2023-04-15T01:42:59;7.37;;;5.37;;
18661;SDS011;61528;49.456;11.098;2023-04-15T01:45:26;7.97;;;5.03;;
18661;SDS011;61528;49.456;11.098;2023-04-15T01:47:52;7.73;;;5.60;;
18661;SDS011;61528;49.456;11.098;2023-04-15T01:50:19;5.90;;;5.40;;
18661;SDS011;61528;49.456;11.098;2023-04-15T01:52:46;5.93;;;5.23;;
18661;SDS011;61528;49.456;11.098;2023-04-15T01:55:12;6.43;;;5.00;;
18661;SDS011;61528;49.456;11.098;2023-04-15T01:57:39;6.50;;;5.27;;
18661;SDS011;61528;49.456;11.098;2023-04-15T02:00:05;5.77;;;5.17;;
18661;SDS011;61528;49.456;11.098;2023-04-15T02:02:32;5.60;;;4.87;;
18661;SDS011;61528;49.456;11.098;2023-04-15T02:04:58;5.63;;;4.53;;
18661;SDS011;61528;49.456;11.098;2023-04-15T02:07:25;5.63;;;5.10;;
18661;SDS011;61528;49.456;11.098;2023-04-15T02:09:53;6.13;;;5.53;;
18661;SDS011;61528;49.456;11.098;2023-04-15T02:12:19;5.30;;;4.80;;
18661;SDS011;61528;49.456;11.098;2023-04-15T02:14:46;7.93;;;5.33;;
18661;SDS011;61528;49.456;11.098;2023-04-15T02:17:12;4.67;;;4.20;;
18661;SDS011;61528;49.456;11.098;2023-04-15T02:19:38;5.93;;;5.10;;
18661;SDS011;61528;49.456;11.098;2023-04-15T02:22:05;5.90;;;5.07;;
18661;SDS011;61528;49.456;11.098;2023-04-15T02:24:33;5.70;;;5.10;;
18661;SDS011;61528;49.456;11.098;2023-04-15T02:26:59;5.43;;;4.93;;
18661;SDS011;61528;49.456;11.098;2023-04-15T02:29:26;5.00;;;4.60;;
18661;SDS011;61528;49.456;11.098;2023-04-15T02:31:52;5.93;;;5.33;;
18661;SDS011;61528;49.456;11.098;2023-04-15T02:34:19;6.00;;;5.20;;
18661;SDS011;61528;49.456;11.098;2023-04-15T02:36:45;5.97;;;4.83;;
18661;SDS011;61528;49.456;11.098;2023-04-15T02:39:13;6.47;;;4.63;;
18661;SDS011;61528;49.456;11.098;2023-04-15T02:41:41;5.27;;;4.77;;
18661;SDS011;61528;49.456;11.098;2023-04-15T02:44:08;5.27;;;4.80;;
18661;SDS011;61528;49.456;11.098;2023-04-15T02:46:37;5.63;;;4.80;;
18661;SDS011;61528;49.456;11.098;2023-04-15T02:49:03;5.30;;;4.80;;
18661;SDS011;61528;49.456;11.098;2023-04-15T02:51:29;8.00;;;5.20;;
18661;SDS011;61528;49.456;11.098;2023-04-15T02:53:56;7.23;;;5.40;;
18661;SDS011;61528;49.456;11.098;2023-04-15T02:56:22;6.83;;;5.40;;
18661;SDS011;61528;49.456;11.098;2023-04-15T02:58:48;7.03;;;6.10;;
18661;SDS011;61528;49.456;11.098;2023-04-15T03:01:15;8.30;;;5.80;;
18661;SDS011;61528;49.456;11.098;2023-04-15T03:03:41;7.03;;;5.97;;
18661;SDS011;61528;49.456;11.098;2023-04-15T03:06:08;6.63;;;5.63;;
18661;SDS011;61528;49.456;11.098;2023-04-15T03:08:34;5.77;;;5.17;;
18661;SDS011;61528;49.456;11.098;2023-04-15T03:11:00;6.10;;;4.87;;
18661;SDS011;61528;49.456;11.098;2023-04-15T03:13:27;6.50;;;5.50;;
18661;SDS011;61528;49.456;11.098;2023-04-15T03:15:53;6.53;;;4.83;;
18661;SDS011;61528;49.456;11.098;2023-04-15T03:18:19;5.17;;;4.67;;
18661;SDS011;61528;49.456;11.098;2023-04-15T03:20:45;5.10;;;4.60;;
18661;SDS011;61528;49.456;11.098;2023-04-15T03:23:12;5.23;;;4.73;;
18661;SDS011;61528;49.456;11.098;2023-04-15T03:25:38;6.43;;;5.10;;
18661;SDS011;61528;49.456;11.098;2023-04-15T03:28:04;5.40;;;4.90;;
18661;SDS011;61528;49.456;11.098;2023-04-15T03:30:30;6.40;;;5.03;;
18661;SDS011;61528;49.456;11.098;2023-04-15T03:32:57;6.33;;;4.77;;
18661;SDS011;61528;49.456;11.098;2023-04-15T03:35:23;5.03;;;4.50;;
18661;SDS011;61528;49.456;11.098;2023-04-15T03:37:49;5.13;;;4.53;;
18661;SDS011;61528;49.456;11.098;2023-04-15T03:40:15;5.00;;;4.50;;
18661;SDS011;61528;49.456;11.098;2023-04-15T03:42:42;5.80;;;4.43;;
18661;SDS011;61528;49.456;11.098;2023-04-15T03:45:08;5.40;;;4.50;;
18661;SDS011;61528;49.456;11.098;2023-04-15T03:47:35;5.13;;;4.53;;
18661;SDS011;61528;49.456;11.098;2023-04-15T03:50:01;4.70;;;4.30;;
18661;SDS011;61528;49.456;11.098;2023-04-15T03:52:27;5.43;;;4.93;;
18661;SDS011;61528;49.456;11.098;2023-04-15T03:54:53;6.03;;;4.63;;
18661;SDS011;61528;49.456;11.098;2023-04-15T03:57:20;5.30;;;4.60;;
18661;SDS011;61528;49.456;11.098;2023-04-15T03:59:46;5.47;;;4.70;;
18661;SDS011;61528;49.456;11.098;2023-04-15T04:02:12;5.30;;;4.80;;
18661;SDS011;61528;49.456;11.098;2023-04-15T04:04:39;5.83;;;5.30;;
18661;SDS011;61528;49.456;11.098;2023-04-15T04:07:05;6.40;;;4.50;;
18661;SDS011;61528;49.456;11.098;2023-04-15T04:09:31;6.37;;;5.20;;
18661;SDS011;61528;49.456;11.098;2023-04-15T04:11:57;5.90;;;4.87;;
18661;SDS011;61528;49.456;11.098;2023-04-15T04:14:24;6.00;;;5.13;;
18661;SDS011;61528;49.456;11.098;2023-04-15T04:16:53;5.60;;;5.10;;
18661;SDS011;61528;49.456;11.098;2023-04-15T04:19:21;6.43;;;5.20;;
18661;SDS011;61528;49.456;11.098;2023-04-15T04:21:47;5.83;;;5.30;;
18661;SDS011;61528;49.456;11.098;2023-04-15T04:24:14;6.20;;;5.60;;
18661;SDS011;61528;49.456;11.098;2023-04-15T04:26:40;6.40;;;5.80;;
18661;SDS011;61528;49.456;11.098;2023-04-15T04:29:06;7.63;;;5.90;;
18661;SDS011;61528;49.456;11.098;2023-04-15T04:31:32;6.80;;;5.77;;
18661;SDS011;61528;49.456;11.098;2023-04-15T04:33:59;7.07;;;5.40;;
18661;SDS011;61528;49.456;11.098;2023-04-15T04:36:25;6.77;;;5.20;;
18661;SDS011;61528;49.456;11.098;2023-04-15T04:38:51;7.00;;;5.73;;
18661;SDS011;61528;49.456;11.098;2023-04-15T04:41:17;6.40;;;5.67;;
18661;SDS011;61528;49.456;11.098;2023-04-15T04:43:43;6.90;;;5.80;;
18661;SDS011;61528;49.456;11.098;2023-04-15T04:46:10;7.20;;;5.67;;
18661;SDS011;61528;49.456;11.098;2023-04-15T04:48:36;6.30;;;5.70;;
18661;SDS011;61528;49.456;11.098;2023-04-15T04:51:03;6.20;;;5.50;;
18661;SDS011;61528;49.456;11.098;2023-04-15T04:53:29;6.07;;;5.47;;
18661;SDS011;61528;49.456;11.098;2023-04-15T04:55:56;9.03;;;6.17;;
18661;SDS011;61528;49.456;11.098;2023-04-15T04:58:22;7.17;;;5.50;;
18661;SDS011;61528;49.456;11.098;2023-04-15T05:00:48;7.53;;;5.97;;
18661;SDS011;61528;49.456;11.098;2023-04-15T05:03:15;7.07;;;6.13;;
18661;SDS011;61528;49.456;11.098;2023-04-15T05:05:41;7.80;;;5.77;;
18661;SDS011;61528;49.456;11.098;2023-04-15T05:08:07;7.37;;;6.00;;
18661;SDS011;61528;49.456;11.098;2023-04-15T05:10:34;6.10;;;5.50;;
18661;SDS011;61528;49.456;11.098;2023-04-15T05:13:00;7.20;;;6.00;;
18661;SDS011;61528;49.456;11.098;2023-04-15T05:15:26;6.90;;;5.90;;
18661;SDS011;61528;49.456;11.098;2023-04-15T05:17:53;6.57;;;5.80;;
18661;SDS011;61528;49.456;11.098;2023-04-15T05:20:19;6.33;;;5.63;;
18661;SDS011;61528;49.456;11.098;2023-04-15T05:22:45;6.83;;;6.03;;
18661;SDS011;61528;49.456;11.098;2023-04-15T05:25:11;6.43;;;5.83;;
18661;SDS011;61528;49.456;11.098;2023-04-15T05:27:38;6.63;;;5.67;;
18661;SDS011;61528;49.456;11.098;2023-04-15T05:30:04;6.27;;;5.67;;
18661;SDS011;61528;49.456;11.098;2023-04-15T05:32:31;6.93;;;5.80;;
18661;SDS011;61528;49.456;11.098;2023-04-15T05:34:57;8.30;;;6.67;;
18661;SDS011;61528;49.456;11.098;2023-04-15T05:37:24;6.20;;;5.50;;
18661;SDS011;61528;49.456;11.098;2023-04-15T05:39:51;7.00;;;6.30;;
18661;SDS011;61528;49.456;11.098;2023-04-15T05:42:18;6.43;;;5.60;;
18661;SDS011;61528;49.456;11.098;2023-04-15T05:44:44;6.53;;;5.50;;
18661;SDS011;61528;49.456;11.098;2023-04-15T05:47:10;6.47;;;5.77;;
18661;SDS011;61528;49.456;11.098;2023-04-15T05:49:37;6.50;;;5.83;;
18661;SDS011;61528;49.456;11.098;2023-04-15T05:52:03;8.23;;;6.27;;
18661;SDS011;61528;49.456;11.098;2023-04-15T05:54:30;7.33;;;6.10;;
18661;SDS011;61528;49.456;11.098;2023-04-15T05:56:56;7.23;;;6.33;;
18661;SDS011;61528;49.456;11.098;2023-04-15T05:59:22;7.17;;;6.20;;
18661;SDS011;61528;49.456;11.098;2023-04-15T06:01:48;8.13;;;6.40;;
18661;SDS011;61528;49.456;11.098;2023-04-15T06:04:16;7.57;;;6.40;;
18661;SDS011;61528;49.456;11.098;2023-04-15T06:06:42;6.23;;;5.63;;
18661;SDS011;61528;49.456;11.098;2023-04-15T06:09:08;9.03;;;6.50;;
18661;SDS011;61528;49.456;11.098;2023-04-15T06:11:35;8.17;;;5.93;;
18661;SDS011;61528;49.456;11.098;2023-04-15T06:14:01;7.70;;;6.63;;
18661;SDS011;61528;49.456;11.098;2023-04-15T06:16:27;8.07;;;6.40;;
18661;SDS011;61528;49.456;11.098;2023-04-15T06:18:53;8.17;;;6.50;;
18661;SDS011;61528;49.456;11.098;2023-04-15T06:21:20;7.63;;;6.47;;
18661;SDS011;61528;49.456;11.098;2023-04-15T06:23:46;7.57;;;6.77;;
18661;SDS011;61528;49.456;11.098;2023-04-15T06:26:12;8.80;;;7.30;;
18661;SDS011;61528;49.456;11.098;2023-04-15T06:28:38;7.93;;;6.87;;
18661;SDS011;61528;49.456;11.098;2023-04-15T06:31:05;9.10;;;7.03;;
18661;SDS011;61528;49.456;11.098;2023-04-15T06:33:31;9.97;;;7.13;;
18661;SDS011;61528;49.456;11.098;2023-04-15T06:35:57;17.87;;;12.97;;
18661;SDS011;61528;49.456;11.098;2023-04-15T06:38:24;12.17;;;9.77;;
18661;SDS011;61528;49.456;11.098;2023-04-15T06:40:50;15.57;;;11.43;;
18661;SDS011;61528;49.456;11.098;2023-04-15T06:43:16;17.67;;;11.63;;
18661;SDS011;61528;49.456;11.098;2023-04-15T06:45:43;13.80;;;9.63;;
18661;SDS011;61528;49.456;11.098;2023-04-15T06:48:10;13.70;;;9.70;;
18661;SDS011;61528;49.456;11.098;2023-04-15T06:50:36;16.97;;;13.83;;
18661;SDS011;61528;49.456;11.098;2023-04-15T06:53:03;16.83;;;13.80;;
18661;SDS011;61528;49.456;11.098;2023-04-15T06:55:29;13.90;;;12.20;;
18661;SDS011;61528;49.456;11.098;2023-04-15T06:57:56;12.10;;;9.60;;
18661;SDS011;61528;49.456;11.098;2023-04-15T07:00:22;12.10;;;9.40;;
18661;SDS011;61528;49.456;11.098;2023-04-15T07:02:50;11.47;;;10.27;;
18661;SDS011;61528;49.456;11.098;2023-04-15T07:05:16;9.70;;;7.93;;
18661;SDS011;61528;49.456;11.098;2023-04-15T07:07:43;7.83;;;6.77;;
18661;SDS011;61528;49.456;11.098;2023-04-15T07:10:09;8.10;;;7.30;;
18661;SDS011;61528;49.456;11.098;2023-04-15T07:12:36;10.60;;;7.60;;
18661;SDS011;61528;49.456;11.098;2023-04-15T07:15:03;9.57;;;7.80;;
18661;SDS011;61528;49.456;11.098;2023-04-15T07:17:29;8.10;;;6.97;;
18661;SDS011;61528;49.456;11.098;2023-04-15T07:19:56;8.07;;;7.20;;
18661;SDS011;61528;49.456;11.098;2023-04-15T07:22:23;8.47;;;7.50;;
18661;SDS011;61528;49.456;11.098;2023-04-15T07:24:50;9.53;;;8.07;;
18661;SDS011;61528;49.456;11.098;2023-04-15T07:27:16;8.53;;;7.67;;
18661;SDS011;61528;49.456;11.098;2023-04-15T07:29:42;8.93;;;8.00;;
18661;SDS011;61528;49.456;11.098;2023-04-15T07:32:09;9.10;;;7.53;;
18661;SDS011;61528;49.456;11.098;2023-04-15T07:34:35;17.00;;;11.27;;
18661;SDS011;61528;49.456;11.098;2023-04-15T07:37:02;12.93;;;9.73;;
18661;SDS011;61528;49.456;11.098;2023-04-15T07:39:28;10.00;;;8.93;;
18661;SDS011;61528;49.456;11.098;2023-04-15T07:41:55;10.63;;;8.37;;
18661;SDS011;61528;49.456;11.098;2023-04-15T07:44:21;8.70;;;7.03;;
18661;SDS011;61528;49.456;11.098;2023-04-15T07:46:48;7.50;;;6.77;;
18661;SDS011;61528;49.456;11.098;2023-04-15T07:49:14;7.23;;;6.13;;
18661;SDS011;61528;49.456;11.098;2023-04-15T07:51:40;8.53;;;7.00;;
18661;SDS011;61528;49.456;11.098;2023-04-15T07:54:08;7.17;;;5.70;;
18661;SDS011;61528;49.456;11.098;2023-04-15T07:56:34;7.07;;;5.33;;
18661;SDS011;61528;49.456;11.098;2023-04-15T07:59:00;4.97;;;4.00;;
18661;SDS011;61528;49.456;11.098;2023-04-15T08:01:29;4.63;;;4.10;;
18661;SDS011;61528;49.456;11.098;2023-04-15T08:03:55;5.93;;;4.57;;
18661;SDS011;61528;49.456;11.098;2023-04-15T08:06:22;5.70;;;4.93;;
18661;SDS011;61528;49.456;11.098;2023-04-15T08:08:48;5.43;;;4.63;;
18661;SDS011;61528;49.456;11.098;2023-04-15T08:11:14;8.07;;;7.27;;
18661;SDS011;61528;49.456;11.098;2023-04-15T08:13:41;6.90;;;6.30;;
18661;SDS011;61528;49.456;11.098;2023-04-15T08:16:17;7.27;;;5.17;;
18661;SDS011;61528;49.456;11.098;2023-04-15T08:18:44;5.63;;;5.07;;
18661;SDS011;61528;49.456;11.098;2023-04-15T08:21:11;7.90;;;6.13;;
18661;SDS011;61528;49.456;11.098;2023-04-15T08:23:38;5.63;;;5.13;;
18661;SDS011;61528;49.456;11.098;2023-04-15T08:26:04;7.10;;;6.30;;
18661;SDS011;61528;49.456;11.098;2023-04-15T08:28:31;10.43;;;8.60;;
18661;SDS011;61528;49.456;11.098;2023-04-15T08:30:57;8.43;;;7.00;;
18661;SDS011;61528;49.456;11.098;2023-04-15T08:33:24;8.70;;;6.50;;
18661;SDS011;61528;49.456;11.098;2023-04-15T08:35:50;8.47;;;6.17;;
18661;SDS011;61528;49.456;11.098;2023-04-15T08:38:17;8.20;;;6.80;;
18661;SDS011;61528;49.456;11.098;2023-04-15T08:40:44;7.03;;;5.03;;
18661;SDS011;61528;49.456;11.098;2023-04-15T08:43:18;4.20;;;2.70;;
18661;SDS011;61528;49.456;11.098;2023-04-15T08:45:49;3.00;;;2.70;;
18661;SDS011;61528;49.456;11.098;2023-04-15T08:48:16;3.33;;;3.03;;
18661;SDS011;61528;49.456;11.098;2023-04-15T08:50:43;4.33;;;2.70;;
18661;SDS011;61528;49.456;11.098;2023-04-15T08:53:12;1.73;;;1.63;;
18661;SDS011;61528;49.456;11.098;2023-04-15T08:55:42;2.27;;;2.07;;
18661;SDS011;61528;49.456;11.098;2023-04-15T08:58:12;3.43;;;2.40;;
18661;SDS011;61528;49.456;11.098;2023-04-15T09:00:39;2.33;;;2.13;;
18661;SDS011;61528;49.456;11.098;2023-04-15T09:03:05;2.30;;;2.10;;
18661;SDS011;61528;49.456;11.098;2023-04-15T09:05:32;2.83;;;2.23;;
18661;SDS011;61528;49.456;11.098;2023-04-15T09:07:59;2.50;;;2.30;;
18661;SDS011;61528;49.456;11.098;2023-04-15T09:10:26;2.97;;;2.67;;
18661;SDS011;61528;49.456;11.098;2023-04-15T09:12:53;3.10;;;2.80;;
18661;SDS011;61528;49.456;11.098;2023-04-15T09:15:19;3.00;;;2.80;;
18661;SDS011;61528;49.456;11.098;2023-04-15T09:17:46;4.50;;;3.30;;
18661;SDS011;61528;49.456;11.098;2023-04-15T09:20:13;3.83;;;3.20;;
18661;SDS011;61528;49.456;11.098;2023-04-15T09:22:40;4.20;;;3.40;;
18661;SDS011;61528;49.456;11.098;2023-04-15T09:27:53;4.83;;;3.97;;
18661;SDS011;61528;49.456;11.098;2023-04-15T09:30:20;4.10;;;3.70;;
18661;SDS011;61528;49.456;11.098;2023-04-15T09:32:50;4.53;;;4.03;;
18661;SDS011;61528;49.456;11.098;2023-04-15T09:35:17;3.67;;;3.30;;
18661;SDS011;61528;49.456;11.098;2023-04-15T09:37:44;5.47;;;3.90;;
18661;SDS011;61528;49.456;11.098;2023-04-15T09:40:10;3.80;;;3.40;;
18661;SDS011;61528;49.456;11.098;2023-04-15T09:42:55;4.00;;;3.60;;
18661;SDS011;61528;49.456;11.098;2023-04-15T09:45:22;6.57;;;5.87;;
18661;SDS011;61528;49.456;11.098;2023-04-15T09:47:49;3.10;;;2.87;;
18661;SDS011;61528;49.456;11.098;2023-04-15T09:50:16;3.83;;;3.23;;
18661;SDS011;61528;49.456;11.098;2023-04-15T09:52:42;3.40;;;3.10;;
18661;SDS011;61528;49.456;11.098;2023-04-15T09:55:09;3.10;;;2.67;;
18661;SDS011;61528;49.456;11.098;2023-04-15T09:57:36;4.03;;;2.37;;
18661;SDS011;61528;49.456;11.098;2023-04-15T10:00:03;2.97;;;2.07;;
18661;SDS011;61528;49.456;11.098;2023-04-15T10:02:29;2.37;;;2.17;;
18661;SDS011;61528;49.456;11.098;2023-04-15T10:04:56;3.00;;;2.40;;
18661;SDS011;61528;49.456;11.098;2023-04-15T10:07:22;2.90;;;2.70;;
18661;SDS011;61528;49.456;11.098;2023-04-15T10:09:50;3.97;;;3.67;;
18661;SDS011;61528;49.456;11.098;2023-04-15T10:12:17;7.23;;;5.87;;
18661;SDS011;61528;49.456;11.098;2023-04-15T10:14:46;8.00;;;7.30;;
18661;SDS011;61528;49.456;11.098;2023-04-15T10:17:13;6.67;;;6.07;;
18661;SDS011;61528;49.456;11.098;2023-04-15T10:19:43;3.93;;;3.53;;
18661;SDS011;61528;49.456;11.098;2023-04-15T10:22:09;3.50;;;2.80;;
18661;SDS011;61528;49.456;11.098;2023-04-15T10:24:36;3.30;;;3.00;;
18661;SDS011;61528;49.456;11.098;2023-04-15T10:27:04;7.17;;;4.83;;
18661;SDS011;61528;49.456;11.098;2023-04-15T10:29:30;2.37;;;2.17;;
18661;SDS011;61528;49.456;11.098;2023-04-15T10:31:59;3.10;;;2.17;;
18661;SDS011;61528;49.456;11.098;2023-04-15T10:34:26;2.53;;;2.30;;
18661;SDS011;61528;49.456;11.098;2023-04-15T10:36:56;2.37;;;2.17;;
18661;SDS011;61528;49.456;11.098;2023-04-15T10:42:08;3.13;;;2.20;;
18661;SDS011;61528;49.456;11.098;2023-04-15T10:44:35;2.63;;;1.90;;
18661;SDS011;61528;49.456;11.098;2023-04-15T10:47:08;2.10;;;1.90;;
18661;SDS011;61528;49.456;11.098;2023-04-15T10:49:58;2.40;;;1.77;;
18661;SDS011;61528;49.456;11.098;2023-04-15T10:52:24;2.17;;;1.97;;
18661;SDS011;61528;49.456;11.098;2023-04-15T10:57:36;3.53;;;2.20;;
18661;SDS011;61528;49.456;11.098;2023-04-15T11:00:10;2.60;;;2.40;;
18661;SDS011;61528;49.456;11.098;2023-04-15T11:02:40;2.50;;;2.20;;
18661;SDS011;61528;49.456;11.098;2023-04-15T11:05:07;2.30;;;2.10;;
18661;SDS011;61528;49.456;11.098;2023-04-15T11:12:39;3.07;;;2.60;;
18661;SDS011;61528;49.456;11.098;2023-04-15T11:17:51;3.17;;;2.70;;
18661;SDS011;61528;49.456;11.098;2023-04-15T11:20:17;4.17;;;3.70;;
18661;SDS011;61528;49.456;11.098;2023-04-15T11:22:52;4.00;;;3.27;;
18661;SDS011;61528;49.456;11.098;2023-04-15T11:25:26;3.00;;;2.80;;
18661;SDS011;61528;49.456;11.098;2023-04-15T11:27:52;4.13;;;3.63;;
18661;SDS011;61528;49.456;11.098;2023-04-15T11:30:23;3.10;;;2.80;;
18661;SDS011;61528;49.456;11.098;2023-04-15T11:32:50;3.47;;;3.10;;
18661;SDS011;61528;49.456;11.098;2023-04-15T11:35:17;3.00;;;2.70;;
18661;SDS011;61528;49.456;11.098;2023-04-15T11:37:43;3.23;;;2.93;;
18661;SDS011;61528;49.456;11.098;2023-04-15T11:40:10;2.80;;;2.50;;
18661;SDS011;61528;49.456;11.098;2023-04-15T11:42:37;3.50;;;2.70;;
18661;SDS011;61528;49.456;11.098;2023-04-15T11:45:10;3.20;;;2.60;;
18661;SDS011;61528;49.456;11.098;2023-04-15T11:47:37;3.07;;;2.33;;
18661;SDS011;61528;49.456;11.098;2023-04-15T11:50:16;1.80;;;1.70;;
18661;SDS011;61528;49.456;11.098;2023-04-15T11:55:19;1.57;;;1.47;;
18661;SDS011;61528;49.456;11.098;2023-04-15T11:57:45;2.83;;;1.90;;
18661;SDS011;61528;49.456;11.098;2023-04-15T12:00:12;1.57;;;1.47;;
18661;SDS011;61528;49.456;11.098;2023-04-15T12:02:39;1.70;;;1.60;;
18661;SDS011;61528;49.456;11.098;2023-04-15T12:05:05;1.97;;;1.83;;
18661;SDS011;61528;49.456;11.098;2023-04-15T12:07:32;2.03;;;1.83;;
18661;SDS011;61528;49.456;11.098;2023-04-15T12:09:58;2.23;;;1.90;;
18661;SDS011;61528;49.456;11.098;2023-04-15T12:12:27;2.13;;;2.00;;
18661;SDS011;61528;49.456;11.098;2023-04-15T12:14:57;2.00;;;1.73;;
18661;SDS011;61528;49.456;11.098;2023-04-15T12:17:24;2.57;;;2.20;;
18661;SDS011;61528;49.456;11.098;2023-04-15T12:19:54;2.30;;;1.97;;
18661;SDS011;61528;49.456;11.098;2023-04-15T12:22:21;3.03;;;2.20;;
18661;SDS011;61528;49.456;11.098;2023-04-15T12:24:52;2.03;;;1.90;;
18661;SDS011;61528;49.456;11.098;2023-04-15T12:27:24;2.80;;;2.20;;
18661;SDS011;61528;49.456;11.098;2023-04-15T12:29:56;2.00;;;1.90;;
18661;SDS011;61528;49.456;11.098;2023-04-15T12:32:29;2.13;;;1.60;;
18661;SDS011;61528;49.456;11.098;2023-04-15T12:34:55;1.47;;;1.37;;
18661;SDS011;61528;49.456;11.098;2023-04-15T12:37:22;1.83;;;1.40;;
18661;SDS011;61528;49.456;11.098;2023-04-15T12:39:48;1.70;;;1.60;;
18661;SDS011;61528;49.456;11.098;2023-04-15T12:42:15;1.47;;;1.37;;
18661;SDS011;61528;49.456;11.098;2023-04-15T12:44:42;1.47;;;1.27;;
18661;SDS011;61528;49.456;11.098;2023-04-15T12:47:09;1.50;;;1.40;;
18661;SDS011;61528;49.456;11.098;2023-04-15T12:49:36;1.50;;;1.40;;
18661;SDS011;61528;49.456;11.098;2023-04-15T12:52:03;1.20;;;1.10;;
18661;SDS011;61528;49.456;11.098;2023-04-15T12:54:30;1.47;;;1.37;;
18661;SDS011;61528;49.456;11.098;2023-04-15T12:56:57;1.57;;;1.47;;
18661;SDS011;61528;49.456;11.098;2023-04-15T12:59:24;1.80;;;1.67;;
18661;SDS011;61528;49.456;11.098;2023-04-15T13:01:50;1.50;;;1.40;;
18661;SDS011;61528;49.456;11.098;2023-04-15T13:04:17;1.50;;;1.40;;
18661;SDS011;61528;49.456;11.098;2023-04-15T13:06:44;1.60;;;1.50;;
18661;SDS011;61528;49.456;11.098;2023-04-15T13:09:10;1.50;;;1.30;;
18661;SDS011;61528;49.456;11.098;2023-04-15T13:11:37;2.30;;;2.10;;
18661;SDS011;61528;49.456;11.098;2023-04-15T13:14:04;3.17;;;2.50;;
18661;SDS011;61528;49.456;11.098;2023-04-15T13:16:31;1.87;;;1.77;;
18661;SDS011;61528;49.456;11.098;2023-04-15T13:18:58;1.83;;;1.73;;
18661;SDS011;61528;49.456;11.098;2023-04-15T13:21:25;1.80;;;1.70;;
18661;SDS011;61528;49.456;11.098;2023-04-15T13:23:51;1.60;;;1.50;;
18661;SDS011;61528;49.456;11.098;2023-04-15T13:26:17;2.10;;;1.80;;
18661;SDS011;61528;49.456;11.098;2023-04-15T13:28:44;1.70;;;1.60;;
18661;SDS011;61528;49.456;11.098;2023-04-15T13:31:10;1.90;;;1.70;;
18661;SDS011;61528;49.456;11.098;2023-04-15T13:33:37;1.70;;;1.60;;
18661;SDS011;61528;49.456;11.098;2023-04-15T13:36:03;1.93;;;1.53;;
18661;SDS011;61528;49.456;11.098;2023-04-15T13:38:29;1.70;;;1.60;;
18661;SDS011;61528;49.456;11.098;2023-04-15T13:40:56;1.20;;;1.20;;
18661;SDS011;61528;49.456;11.098;2023-04-15T13:43:22;1.93;;;1.37;;
18661;SDS011;61528;49.456;11.098;2023-04-15T13:45:48;1.40;;;1.30;;
18661;SDS011;61528;49.456;11.098;2023-04-15T13:48:15;1.43;;;1.33;;
18661;SDS011;61528;49.456;11.098;2023-04-15T13:50:42;1.30;;;1.17;;
18661;SDS011;61528;49.456;11.098;2023-04-15T13:53:10;1.67;;;1.57;;
18661;SDS011;61528;49.456;11.098;2023-04-15T13:55:36;1.47;;;1.37;;
18661;SDS011;61528;49.456;11.098;2023-04-15T13:58:06;1.50;;;1.40;;
18661;SDS011;61528;49.456;11.098;2023-04-15T14:00:32;1.63;;;1.53;;
18661;SDS011;61528;49.456;11.098;2023-04-15T14:02:58;1.60;;;1.50;;
18661;SDS011;61528;49.456;11.098;2023-04-15T14:05:25;1.40;;;1.30;;
18661;SDS011;61528;49.456;11.098;2023-04-15T14:07:51;1.50;;;1.40;;
18661;SDS011;61528;49.456;11.098;2023-04-15T14:10:17;1.60;;;1.50;;
18661;SDS011;61528;49.456;11.098;2023-04-15T14:12:44;1.80;;;1.70;;
18661;SDS011;61528;49.456;11.098;2023-04-15T14:15:10;1.70;;;1.60;;
18661;SDS011;61528;49.456;11.098;2023-04-15T14:17:36;2.43;;;1.93;;
18661;SDS011;61528;49.456;11.098;2023-04-15T14:20:03;1.10;;;1.10;;
18661;SDS011;61528;49.456;11.098;2023-04-15T14:22:31;2.00;;;1.63;;
18661;SDS011;61528;49.456;11.098;2023-04-15T14:24:57;1.80;;;1.70;;
18661;SDS011;61528;49.456;11.098;2023-04-15T14:27:25;2.10;;;1.90;;
18661;SDS011;61528;49.456;11.098;2023-04-15T14:29:51;2.20;;;1.40;;
18661;SDS011;61528;49.456;11.098;2023-04-15T14:32:18;4.13;;;3.73;;
18661;SDS011;61528;49.456;11.098;2023-04-15T14:34:44;1.70;;;1.60;;
18661;SDS011;61528;49.456;11.098;2023-04-15T14:37:11;1.60;;;1.50;;
18661;SDS011;61528;49.456;11.098;2023-04-15T14:39:37;1.67;;;1.57;;
18661;SDS011;61528;49.456;11.098;2023-04-15T14:42:03;1.50;;;1.40;;
18661;SDS011;61528;49.456;11.098;2023-04-15T14:44:30;1.60;;;1.50;;
18661;SDS011;61528;49.456;11.098;2023-04-15T14:46:56;1.70;;;1.60;;
18661;SDS011;61528;49.456;11.098;2023-04-15T14:49:22;2.73;;;2.03;;
18661;SDS011;61528;49.456;11.098;2023-04-15T14:51:49;2.00;;;1.73;;